createdAt,value
2019-03-21T00:01:19.043Z,4.10
2019-03-21T00:03:49.118Z,4.10
2019-03-21T00:06:17.557Z,4.00
2019-03-21T00:08:47.140Z,4.10
2019-03-21T00:11:51.815Z,4.10
2019-03-21T00:14:23.329Z,4.20
2019-03-21T00:16:51.835Z,4.20
2019-03-21T00:19:20.272Z,4.30
2019-03-21T00:21:48.686Z,4.30
2019-03-21T00:24:17.131Z,4.40
2019-03-21T00:26:45.558Z,4.40
2019-03-21T00:29:13.984Z,4.50
2019-03-21T00:31:42.437Z,4.30
2019-03-21T00:34:10.901Z,4.10
2019-03-21T00:36:39.341Z,4.00
2019-03-21T00:39:09.737Z,4.00
2019-03-21T00:41:38.165Z,4.00
2019-03-21T00:44:17.628Z,3.90
2019-03-21T00:46:36.762Z,3.80
2019-03-21T00:49:05.275Z,3.90
2019-03-21T00:51:33.710Z,4.00
2019-03-21T00:54:02.143Z,3.70
2019-03-21T00:56:30.627Z,3.60
2019-03-21T00:58:59.081Z,3.40
2019-03-21T01:01:27.576Z,3.40
2019-03-21T01:03:56.007Z,3.30
2019-03-21T01:06:24.458Z,3.40
2019-03-21T01:08:52.939Z,3.30
2019-03-21T01:11:21.442Z,3.30
2019-03-21T01:13:49.903Z,3.10
2019-03-21T01:16:18.343Z,3.00
2019-03-21T01:18:47.604Z,3.40
2019-03-21T01:21:16.039Z,3.40
2019-03-21T01:23:44.457Z,3.00
2019-03-21T01:26:14.544Z,3.20
2019-03-21T01:28:43.126Z,3.10
2019-03-21T01:31:11.579Z,2.90
2019-03-21T01:33:39.994Z,2.90
2019-03-21T01:36:08.722Z,2.90
2019-03-21T01:38:37.139Z,3.10
2019-03-21T01:41:11.602Z,3.30
2019-03-21T01:43:40.044Z,3.30
2019-03-21T01:46:14.786Z,3.20
2019-03-21T01:48:43.233Z,3.10
2019-03-21T01:51:11.706Z,3.00
2019-03-21T01:53:40.146Z,3.20
2019-03-21T01:56:08.612Z,2.80
2019-03-21T01:58:37.092Z,2.60
2019-03-21T02:01:05.541Z,2.80
2019-03-21T02:03:33.964Z,2.90
2019-03-21T02:06:02.406Z,2.90
2019-03-21T02:08:30.833Z,2.90
2019-03-21T02:10:59.282Z,2.70
2019-03-21T02:13:27.726Z,2.80
2019-03-21T02:15:56.173Z,3.00
2019-03-21T02:18:24.620Z,3.00
2019-03-21T02:20:53.055Z,3.10
2019-03-21T02:23:21.498Z,2.90
2019-03-21T02:25:50.002Z,3.00
2019-03-21T02:28:18.448Z,3.10
2019-03-21T02:30:49.666Z,2.90
2019-03-21T02:33:32.420Z,2.80
2019-03-21T02:36:02.296Z,3.00
2019-03-21T02:38:30.712Z,3.00
2019-03-21T02:41:05.201Z,2.60
2019-03-21T02:43:33.925Z,2.70
2019-03-21T02:46:02.391Z,2.60
2019-03-21T02:48:30.839Z,3.00
2019-03-21T02:50:59.277Z,3.40
2019-03-21T02:53:27.788Z,3.60
2019-03-21T02:55:56.210Z,3.40
2019-03-21T02:58:27.592Z,3.40
2019-03-21T03:00:56.014Z,3.20
2019-03-21T03:03:24.459Z,3.00
2019-03-21T03:05:52.876Z,3.30
2019-03-21T03:08:21.330Z,3.40
2019-03-21T03:10:57.695Z,3.30
2019-03-21T03:13:26.146Z,3.00
2019-03-21T03:15:54.619Z,2.90
2019-03-21T03:18:24.429Z,2.90
2019-03-21T03:20:52.845Z,2.90
2019-03-21T03:23:21.368Z,2.80
2019-03-21T03:25:51.399Z,3.10
2019-03-21T03:28:31.517Z,2.80
2019-03-21T03:30:59.945Z,2.60
2019-03-21T03:33:28.642Z,2.50
2019-03-21T03:35:57.192Z,2.40
2019-03-21T03:38:25.639Z,2.20
2019-03-21T03:41:02.519Z,2.40
2019-03-21T03:43:31.054Z,2.60
2019-03-21T03:45:59.568Z,2.50
2019-03-21T03:48:28.559Z,2.40
2019-03-21T03:50:57.075Z,2.40
2019-03-21T03:53:25.530Z,2.40
2019-03-21T03:55:53.966Z,2.40
2019-03-21T03:58:24.994Z,2.60
2019-03-21T04:00:53.443Z,3.10
2019-03-21T04:03:21.924Z,3.10
2019-03-21T04:05:50.355Z,2.70
2019-03-21T04:08:18.805Z,2.80
2019-03-21T04:10:49.821Z,2.80
2019-03-21T04:13:18.247Z,2.50
2019-03-21T04:15:53.365Z,2.50
2019-03-21T04:18:18.835Z,2.60
2019-03-21T04:20:56.036Z,2.30
2019-03-21T04:23:24.493Z,2.60
2019-03-21T04:26:05.056Z,2.20
2019-03-21T04:28:33.591Z,2.50
2019-03-21T04:31:02.073Z,2.10
2019-03-21T04:33:30.604Z,2.10
2019-03-21T04:35:59.033Z,2.10
2019-03-21T04:38:27.484Z,2.30
2019-03-21T04:40:55.902Z,2.60
2019-03-21T04:43:24.334Z,2.80
2019-03-21T04:46:02.912Z,2.50
2019-03-21T04:48:23.559Z,2.60
2019-03-21T04:50:51.981Z,2.30
2019-03-21T04:53:20.420Z,2.50
2019-03-21T04:55:48.837Z,2.40
2019-03-21T04:58:17.269Z,2.10
2019-03-21T05:00:56.541Z,2.40
2019-03-21T05:03:32.855Z,2.10
2019-03-21T05:06:01.323Z,2.50
2019-03-21T05:08:29.760Z,2.80
2019-03-21T05:10:58.197Z,2.50
2019-03-21T05:13:26.636Z,2.50
2019-03-21T05:15:55.242Z,2.40
2019-03-21T05:18:26.747Z,2.50
2019-03-21T05:20:55.202Z,2.70
2019-03-21T05:23:23.663Z,2.50
2019-03-21T05:25:52.075Z,2.40
2019-03-21T05:28:20.516Z,2.20
2019-03-21T05:31:00.739Z,2.30
2019-03-21T05:33:29.173Z,2.20
2019-03-21T05:35:57.597Z,1.90
2019-03-21T05:38:28.481Z,1.90
2019-03-21T05:40:56.933Z,2.10
2019-03-21T05:43:33.988Z,1.80
2019-03-21T05:46:02.423Z,2.10
2019-03-21T05:48:30.880Z,2.20
2019-03-21T05:50:59.324Z,2.40
2019-03-21T05:53:27.752Z,2.30
2019-03-21T05:55:56.192Z,2.30
2019-03-21T05:58:24.621Z,2.30
2019-03-21T06:01:01.973Z,2.10
2019-03-21T06:03:46.548Z,2.10
2019-03-21T06:06:18.396Z,2.30
2019-03-21T06:08:46.853Z,2.30
2019-03-21T06:11:15.333Z,2.00
2019-03-21T06:13:43.751Z,1.90
2019-03-21T06:16:12.185Z,2.00
2019-03-21T06:19:04.746Z,2.20
2019-03-21T06:21:48.122Z,2.10
2019-03-21T06:24:28.635Z,2.10
2019-03-21T06:27:15.101Z,2.40
2019-03-21T06:29:43.658Z,2.50
2019-03-21T06:32:13.127Z,2.30
2019-03-21T06:34:41.731Z,2.40
2019-03-21T06:37:10.160Z,2.50
2019-03-21T06:39:38.593Z,2.60
2019-03-21T06:42:07.036Z,2.80
2019-03-21T06:44:35.463Z,2.70
2019-03-21T06:47:03.963Z,3.00
2019-03-21T06:49:32.443Z,2.80
2019-03-21T06:52:00.877Z,2.80
2019-03-21T06:54:29.309Z,2.80
2019-03-21T06:56:57.754Z,2.80
2019-03-21T06:59:26.177Z,2.80
2019-03-21T07:01:54.612Z,2.90
2019-03-21T07:04:23.051Z,3.00
2019-03-21T07:06:51.497Z,3.00
2019-03-21T07:09:19.909Z,3.00
2019-03-21T07:11:48.423Z,3.30
2019-03-21T07:14:16.858Z,3.30
2019-03-21T07:16:45.301Z,3.60
2019-03-21T07:19:13.750Z,3.50
2019-03-21T07:21:42.184Z,3.60
2019-03-21T07:24:10.615Z,3.60
2019-03-21T07:26:42.294Z,3.70
2019-03-21T07:29:10.711Z,3.70
2019-03-21T07:31:39.163Z,3.70
2019-03-21T07:34:10.027Z,3.80
2019-03-21T07:36:37.783Z,3.90
2019-03-21T07:39:07.746Z,3.90
2019-03-21T07:41:36.178Z,3.80
2019-03-21T07:44:04.674Z,3.90
2019-03-21T07:46:33.142Z,4.00
2019-03-21T07:49:01.559Z,4.10
2019-03-21T07:51:30.012Z,4.10
2019-03-21T07:53:58.688Z,4.20
2019-03-21T07:56:27.127Z,4.20
2019-03-21T07:58:57.651Z,4.30
2019-03-21T08:01:25.702Z,4.30
2019-03-21T08:03:54.137Z,4.40
2019-03-21T08:06:22.589Z,4.50
2019-03-21T08:08:51.023Z,4.60
2019-03-21T08:11:19.475Z,4.70
2019-03-21T08:13:47.903Z,4.80
2019-03-21T08:16:16.400Z,4.90
2019-03-21T08:18:44.858Z,5.00
2019-03-21T08:21:13.302Z,5.10
2019-03-21T08:23:41.724Z,5.10
2019-03-21T08:26:10.163Z,5.20
2019-03-21T08:28:38.603Z,5.30
2019-03-21T08:31:10.118Z,5.40
2019-03-21T08:33:38.816Z,5.50
2019-03-21T08:36:07.224Z,5.70
2019-03-21T08:38:35.674Z,5.80
2019-03-21T08:41:04.397Z,5.80
2019-03-21T08:43:32.834Z,6.00
2019-03-21T08:46:01.262Z,6.00
2019-03-21T08:48:29.677Z,6.00
2019-03-21T08:51:07.762Z,6.10
2019-03-21T08:53:28.284Z,6.20
2019-03-21T08:55:56.786Z,6.40
2019-03-21T08:58:25.228Z,6.50
2019-03-21T09:00:53.653Z,6.50
2019-03-21T09:03:22.106Z,7.10
2019-03-21T09:05:50.597Z,7.00
2019-03-21T09:08:19.048Z,7.00
2019-03-21T09:10:47.473Z,7.20
2019-03-21T09:13:16.197Z,7.10
2019-03-21T09:15:44.633Z,7.30
2019-03-21T09:18:13.090Z,7.40
2019-03-21T09:20:41.547Z,7.30
2019-03-21T09:23:09.980Z,7.60
2019-03-21T09:25:38.407Z,7.50
2019-03-21T09:28:07.138Z,8.00
2019-03-21T09:30:35.599Z,8.00
2019-03-21T09:33:04.044Z,8.00
2019-03-21T09:35:32.469Z,7.90
2019-03-21T09:38:00.916Z,7.90
2019-03-21T09:40:29.342Z,7.90
2019-03-21T09:42:57.787Z,8.00
2019-03-21T09:45:26.222Z,8.20
2019-03-21T09:47:54.664Z,8.40
2019-03-21T09:50:28.168Z,8.50
2019-03-21T09:52:56.604Z,9.00
2019-03-21T09:55:25.189Z,8.90
2019-03-21T09:57:53.617Z,9.00
2019-03-21T10:00:35.849Z,8.80
2019-03-21T10:03:05.644Z,9.30
2019-03-21T10:05:34.057Z,9.40
2019-03-21T10:08:02.961Z,9.10
2019-03-21T10:10:32.523Z,9.10
2019-03-21T10:13:01.198Z,9.10
2019-03-21T10:15:29.699Z,9.20
2019-03-21T10:17:58.138Z,9.20
2019-03-21T10:20:26.561Z,9.50
2019-03-21T10:22:54.985Z,9.80
2019-03-21T10:25:23.418Z,9.60
2019-03-21T10:27:51.847Z,9.50
2019-03-21T10:30:35.625Z,10.30
2019-03-21T10:33:05.825Z,10.20
2019-03-21T10:35:34.388Z,10.00
2019-03-21T10:38:02.973Z,10.00
2019-03-21T10:40:31.468Z,10.50
2019-03-21T10:42:59.912Z,10.90
2019-03-21T10:45:28.351Z,10.70
2019-03-21T10:47:56.824Z,11.00
2019-03-21T10:50:31.068Z,10.80
2019-03-21T10:52:59.903Z,10.60
2019-03-21T10:55:28.426Z,10.50
2019-03-21T10:57:56.939Z,10.60
2019-03-21T11:00:25.451Z,10.90
2019-03-21T11:02:53.889Z,10.90
2019-03-21T11:05:23.361Z,11.10
2019-03-21T11:07:52.095Z,11.20
2019-03-21T11:10:20.615Z,11.10
2019-03-21T11:12:49.379Z,11.10
2019-03-21T11:15:17.820Z,11.10
2019-03-21T11:17:46.400Z,11.20
2019-03-21T11:20:26.974Z,11.30
2019-03-21T11:22:55.851Z,11.30
2019-03-21T11:25:24.529Z,11.70
2019-03-21T11:27:53.914Z,11.60
2019-03-21T11:30:31.190Z,11.60
2019-03-21T11:33:00.138Z,11.60
2019-03-21T11:35:28.610Z,11.80
2019-03-21T11:37:57.034Z,12.00
2019-03-21T11:40:25.489Z,12.20
2019-03-21T11:42:53.933Z,12.50
2019-03-21T11:45:22.459Z,12.70
2019-03-21T11:47:50.861Z,12.90
2019-03-21T11:50:19.310Z,12.70
2019-03-21T11:52:47.730Z,13.00
2019-03-21T11:55:16.257Z,13.00
2019-03-21T11:57:44.693Z,12.90
2019-03-21T12:00:14.552Z,13.10
2019-03-21T12:02:43.049Z,13.20
2019-03-21T12:05:11.638Z,13.30
2019-03-21T12:07:40.395Z,13.20
2019-03-21T12:10:11.373Z,13.20
2019-03-21T12:12:40.705Z,13.50
2019-03-21T12:15:11.090Z,13.40
2019-03-21T12:17:39.514Z,13.40
2019-03-21T12:20:11.384Z,13.50
2019-03-21T12:22:39.827Z,13.60
2019-03-21T12:25:09.299Z,13.70
2019-03-21T12:27:37.722Z,13.60
2019-03-21T12:30:09.312Z,13.60
2019-03-21T12:32:37.726Z,13.80
2019-03-21T12:35:07.785Z,13.80
2019-03-21T12:37:36.216Z,13.90
2019-03-21T12:40:09.065Z,13.80
2019-03-21T12:42:37.536Z,13.90
2019-03-21T12:45:10.069Z,14.00
2019-03-21T12:47:38.492Z,14.20
2019-03-21T12:50:08.262Z,14.10
2019-03-21T12:52:41.404Z,14.30
2019-03-21T12:55:07.507Z,14.30
2019-03-21T12:57:35.949Z,14.40
2019-03-21T13:00:10.254Z,14.40
2019-03-21T13:02:38.682Z,14.40
2019-03-21T13:05:08.571Z,14.40
2019-03-21T13:07:37.245Z,14.40
2019-03-21T13:10:06.459Z,14.50
2019-03-21T13:12:34.882Z,14.70
2019-03-21T13:15:04.498Z,14.70
2019-03-21T13:17:32.923Z,14.70
2019-03-21T13:20:05.811Z,14.80
2019-03-21T13:22:34.259Z,14.70
2019-03-21T13:25:02.701Z,14.70
2019-03-21T13:27:31.139Z,14.70
2019-03-21T13:29:59.572Z,14.80
2019-03-21T13:32:28.026Z,14.80
2019-03-21T13:34:56.445Z,14.90
2019-03-21T13:37:24.902Z,15.00
2019-03-21T13:39:53.329Z,14.90
2019-03-21T13:42:21.774Z,14.80
2019-03-21T13:44:50.209Z,14.90
2019-03-21T13:47:18.659Z,15.00
2019-03-21T13:49:47.083Z,15.30
2019-03-21T13:52:15.557Z,15.30
2019-03-21T13:54:44.013Z,15.20
2019-03-21T13:57:12.472Z,15.10
2019-03-21T13:59:40.928Z,15.20
2019-03-21T14:02:09.351Z,15.20
2019-03-21T14:04:37.788Z,15.20
2019-03-21T14:07:06.216Z,15.20
2019-03-21T14:09:34.911Z,15.60
2019-03-21T14:12:03.397Z,15.60
2019-03-21T14:14:31.942Z,15.40
2019-03-21T14:17:03.570Z,15.70
2019-03-21T14:19:32.041Z,15.40
2019-03-21T14:22:00.545Z,15.50
2019-03-21T14:24:28.963Z,15.40
2019-03-21T14:26:57.694Z,15.50
2019-03-21T14:29:26.134Z,15.60
2019-03-21T14:31:54.593Z,15.50
2019-03-21T14:34:23.025Z,15.40
2019-03-21T14:36:51.462Z,15.40
2019-03-21T14:39:19.911Z,15.50
2019-03-21T14:41:48.348Z,15.60
2019-03-21T14:44:16.770Z,15.80
2019-03-21T14:46:45.240Z,15.80
2019-03-21T14:49:13.668Z,15.70
2019-03-21T14:51:42.106Z,15.70
2019-03-21T14:54:10.548Z,15.80
2019-03-21T14:56:38.982Z,15.80
2019-03-21T14:59:07.414Z,15.70
2019-03-21T15:01:35.872Z,15.70
2019-03-21T15:04:04.300Z,15.60
2019-03-21T15:06:32.749Z,15.70
2019-03-21T15:09:01.207Z,15.80
2019-03-21T15:11:29.663Z,15.80
2019-03-21T15:13:58.146Z,15.80
2019-03-21T15:16:26.645Z,15.80
2019-03-21T15:18:55.112Z,16.00
2019-03-21T15:21:23.631Z,15.90
2019-03-21T15:23:59.191Z,15.80
2019-03-21T15:26:22.237Z,15.80
2019-03-21T15:28:50.681Z,15.70
2019-03-21T15:31:19.199Z,15.80
2019-03-21T15:33:47.638Z,15.80
2019-03-21T15:36:16.073Z,15.80
2019-03-21T15:38:44.498Z,15.90
2019-03-21T15:41:12.936Z,15.80
2019-03-21T15:43:41.384Z,15.90
2019-03-21T15:46:09.795Z,15.80
2019-03-21T15:48:38.228Z,15.80
2019-03-21T15:51:06.681Z,15.80
2019-03-21T15:53:35.113Z,15.70
2019-03-21T15:56:03.611Z,15.70
2019-03-21T15:58:32.050Z,15.70
2019-03-21T16:01:00.496Z,15.60
2019-03-21T16:03:28.926Z,15.70
2019-03-21T16:05:57.373Z,15.90
2019-03-21T16:08:27.220Z,15.80
2019-03-21T16:10:55.919Z,15.70
2019-03-21T16:13:24.345Z,15.60
2019-03-21T16:15:52.778Z,15.50
2019-03-21T16:18:21.216Z,15.60
2019-03-21T16:20:49.623Z,15.50
2019-03-21T16:23:18.107Z,15.50
2019-03-21T16:25:48.582Z,15.40
2019-03-21T16:28:16.685Z,15.30
2019-03-21T16:30:45.096Z,15.30
2019-03-21T16:33:13.531Z,15.40
2019-03-21T16:35:41.946Z,15.30
2019-03-21T16:38:10.385Z,15.20
2019-03-21T16:40:38.853Z,15.00
2019-03-21T16:43:07.265Z,15.00
2019-03-21T16:45:35.713Z,15.00
2019-03-21T16:48:04.674Z,15.00
2019-03-21T16:50:33.113Z,15.00
2019-03-21T16:53:01.557Z,15.00
2019-03-21T16:55:30.003Z,14.90
2019-03-21T16:57:58.447Z,14.80
2019-03-21T17:00:26.886Z,14.70
2019-03-21T17:02:55.488Z,14.70
2019-03-21T17:05:23.938Z,14.60
2019-03-21T17:07:52.377Z,14.40
2019-03-21T17:10:20.844Z,14.30
2019-03-21T17:12:49.919Z,14.20
2019-03-21T17:15:18.545Z,14.10
2019-03-21T17:17:47.031Z,14.10
2019-03-21T17:20:15.513Z,14.10
2019-03-21T17:22:43.930Z,13.90
2019-03-21T17:25:13.193Z,13.80
2019-03-21T17:27:41.605Z,13.80
2019-03-21T17:30:14.713Z,13.70
2019-03-21T17:32:43.142Z,13.60
2019-03-21T17:35:11.854Z,13.50
2019-03-21T17:37:40.287Z,13.40
2019-03-21T17:40:11.578Z,13.30
2019-03-21T17:42:41.778Z,13.30
2019-03-21T17:45:15.569Z,13.20
2019-03-21T17:47:44.022Z,13.10
2019-03-21T17:50:14.792Z,13.00
2019-03-21T17:52:43.226Z,12.90
2019-03-21T17:55:12.203Z,12.90
2019-03-21T17:57:40.633Z,12.80
2019-03-21T18:00:12.181Z,12.80
2019-03-21T18:02:40.772Z,12.70
2019-03-21T18:05:09.343Z,12.70
2019-03-21T18:07:37.828Z,12.70
2019-03-21T18:10:23.994Z,12.70
2019-03-21T18:12:52.419Z,12.60
2019-03-21T18:15:20.917Z,12.60
2019-03-21T18:17:49.345Z,12.50
2019-03-21T18:20:17.784Z,12.40
2019-03-21T18:22:46.226Z,12.30
2019-03-21T18:25:14.673Z,12.20
2019-03-21T18:27:43.103Z,12.30
2019-03-21T18:30:11.993Z,12.10
2019-03-21T18:32:40.501Z,12.10
2019-03-21T18:35:09.274Z,12.00
2019-03-21T18:37:37.710Z,11.90
2019-03-21T18:40:08.403Z,11.80
2019-03-21T18:42:36.851Z,11.80
2019-03-21T18:45:07.922Z,11.80
2019-03-21T18:47:36.358Z,11.70
2019-03-21T18:50:09.148Z,11.70
2019-03-21T18:52:37.874Z,11.60
2019-03-21T18:55:07.379Z,11.50
2019-03-21T18:57:35.879Z,11.40
2019-03-21T19:00:07.053Z,11.50
2019-03-21T19:02:35.562Z,11.40
2019-03-21T19:05:06.105Z,11.40
2019-03-21T19:07:34.549Z,11.40
2019-03-21T19:10:03.854Z,11.40
2019-03-21T19:12:32.274Z,11.30
2019-03-21T19:15:00.725Z,11.30
2019-03-21T19:17:29.165Z,11.10
2019-03-21T19:19:57.602Z,10.90
2019-03-21T19:22:26.038Z,10.80
2019-03-21T19:24:54.477Z,10.70
2019-03-21T19:27:22.898Z,10.70
2019-03-21T19:29:51.339Z,10.90
2019-03-21T19:32:19.784Z,10.90
2019-03-21T19:34:48.223Z,11.00
2019-03-21T19:37:16.663Z,11.00
2019-03-21T19:39:45.086Z,10.80
2019-03-21T19:42:13.545Z,10.70
2019-03-21T19:44:42.253Z,10.40
2019-03-21T19:47:10.680Z,10.40
2019-03-21T19:49:39.125Z,10.30
2019-03-21T19:52:07.563Z,10.20
2019-03-21T19:54:36.017Z,10.10
2019-03-21T19:57:04.455Z,10.10
2019-03-21T19:59:32.892Z,10.10
2019-03-21T20:02:01.405Z,10.20
2019-03-21T20:04:29.844Z,10.30
2019-03-21T20:06:58.282Z,10.10
2019-03-21T20:09:26.797Z,10.00
2019-03-21T20:11:55.256Z,10.00
2019-03-21T20:14:23.678Z,9.90
2019-03-21T20:16:52.139Z,9.90
2019-03-21T20:19:20.570Z,9.90
2019-03-21T20:21:49.014Z,10.10
2019-03-21T20:24:17.468Z,9.80
2019-03-21T20:26:45.902Z,9.50
2019-03-21T20:29:14.327Z,9.60
2019-03-21T20:31:42.771Z,9.70
2019-03-21T20:34:12.938Z,9.60
2019-03-21T20:36:41.658Z,9.70
2019-03-21T20:39:10.150Z,9.50
2019-03-21T20:41:38.598Z,9.50
2019-03-21T20:44:15.164Z,9.30
2019-03-21T20:46:37.175Z,9.30
2019-03-21T20:49:05.697Z,9.20
2019-03-21T20:51:34.145Z,9.20
2019-03-21T20:54:08.433Z,9.10
2019-03-21T20:56:36.869Z,8.80
2019-03-21T20:59:05.382Z,8.80
2019-03-21T21:01:33.816Z,8.60
2019-03-21T21:04:02.275Z,8.50
2019-03-21T21:06:30.730Z,8.50
2019-03-21T21:08:59.164Z,8.50
2019-03-21T21:11:27.611Z,8.60
2019-03-21T21:13:56.045Z,8.70
2019-03-21T21:16:24.487Z,8.50
2019-03-21T21:18:52.931Z,8.70
2019-03-21T21:21:21.366Z,8.70
2019-03-21T21:23:49.801Z,8.30
2019-03-21T21:26:18.255Z,8.00
2019-03-21T21:28:46.732Z,7.90
2019-03-21T21:31:15.214Z,7.90
2019-03-21T21:33:43.642Z,8.00
2019-03-21T21:36:22.251Z,8.10
2019-03-21T21:38:49.828Z,8.10
2019-03-21T21:41:18.299Z,7.70
2019-03-21T21:43:46.785Z,7.60
2019-03-21T21:46:15.238Z,7.50
2019-03-21T21:48:43.683Z,7.40
2019-03-21T21:51:12.090Z,7.50
2019-03-21T21:53:40.556Z,7.60
2019-03-21T21:56:17.202Z,7.30
2019-03-21T21:58:39.182Z,7.20
2019-03-21T22:01:07.616Z,7.40
2019-03-21T22:03:36.070Z,7.30
2019-03-21T22:06:04.555Z,7.30
2019-03-21T22:08:32.996Z,7.30
2019-03-21T22:11:01.425Z,7.20
2019-03-21T22:13:29.876Z,7.00
2019-03-21T22:15:58.296Z,7.00
2019-03-21T22:18:26.732Z,7.20
2019-03-21T22:20:55.178Z,7.10
2019-03-21T22:23:23.610Z,6.90
2019-03-21T22:25:52.036Z,6.80
2019-03-21T22:28:20.461Z,6.70
2019-03-21T22:30:48.908Z,6.80
2019-03-21T22:33:17.406Z,6.90
2019-03-21T22:35:45.826Z,6.60
2019-03-21T22:38:14.269Z,6.60
2019-03-21T22:40:42.777Z,6.50
2019-03-21T22:43:11.214Z,6.60
2019-03-21T22:45:39.639Z,6.70
2019-03-21T22:48:08.080Z,6.40
2019-03-21T22:50:36.517Z,6.40
2019-03-21T22:53:04.942Z,6.30
2019-03-21T22:55:33.359Z,6.50
2019-03-21T22:58:01.785Z,6.20
2019-03-21T23:00:34.986Z,6.10
2019-03-21T23:03:03.672Z,6.10
2019-03-21T23:05:37.972Z,6.10
2019-03-21T23:08:06.397Z,6.30
2019-03-21T23:10:35.090Z,6.10
2019-03-21T23:13:03.514Z,6.30
2019-03-21T23:15:31.953Z,5.90
2019-03-21T23:18:00.385Z,6.10
2019-03-21T23:20:28.821Z,5.90
2019-03-21T23:22:57.257Z,5.70
2019-03-21T23:25:25.671Z,6.00
2019-03-21T23:27:54.103Z,5.90
2019-03-21T23:30:22.528Z,5.70
2019-03-21T23:32:50.973Z,5.50
2019-03-21T23:35:19.397Z,5.60
2019-03-21T23:37:47.833Z,5.60
2019-03-21T23:40:16.826Z,5.50
2019-03-21T23:42:45.292Z,5.30
2019-03-21T23:45:14.605Z,5.60
2019-03-21T23:47:43.040Z,5.70
2019-03-21T23:50:14.905Z,5.50
2019-03-21T23:52:43.741Z,5.70
2019-03-21T23:55:12.497Z,5.60
2019-03-21T23:57:40.937Z,5.70
